Time;durP1;ratioP1;P1;durP2;ratioP2;P2;SDS_P1;SDS_P2;PMS_P1;PMS_P2;Temp;Humidity;BMP_temperature;BMP_pressure;BME280_temperature;BME280_humidity;BME280_pressure;Samples;Min_cycle;Max_cycle;Signal;HPM_P1;HPM_P2
2022/08/28 00:01:30;;;;;;;15.70;9.85;;;;;;;;;;754988;184;919223;-63
2022/08/28 00:03:56;;;;;;;15.97;11.20;;;;;;;;;;756005;183;917572;-58
2022/08/28 00:06:22;;;;;;;14.10;10.10;;;;;;;;;;754996;184;918258;-58
2022/08/28 00:08:47;;;;;;;17.23;11.20;;;;;;;;;;754252;184;919598;-57
2022/08/28 00:11:13;;;;;;;16.67;10.63;;;;;;;;;;761365;184;819090;-62
2022/08/28 00:13:39;;;;;;;15.50;11.07;;;;;;;;;;756607;184;912885;-61
2022/08/28 00:16:05;;;;;;;14.47;11.83;;;;;;;;;;756333;184;917648;-62
2022/08/28 00:18:31;;;;;;;15.50;10.37;;;;;;;;;;759663;184;918354;-57
2022/08/28 00:20:57;;;;;;;18.27;11.83;;;;;;;;;;755031;184;920914;-58
2022/08/28 00:23:24;;;;;;;13.87;10.97;;;;;;;;;;753967;184;816479;-62
2022/08/28 00:25:49;;;;;;;15.37;11.20;;;;;;;;;;751804;184;816519;-63
2022/08/28 00:28:15;;;;;;;16.93;10.90;;;;;;;;;;758523;184;916299;-62
2022/08/28 00:30:41;;;;;;;14.73;10.33;;;;;;;;;;752946;184;920669;-62
2022/08/28 00:33:10;;;;;;;12.80;10.00;;;;;;;;;;754694;184;919109;-59
2022/08/28 00:35:36;;;;;;;15.53;10.83;;;;;;;;;;761181;184;818176;-57
2022/08/28 00:38:02;;;;;;;14.00;11.27;;;;;;;;;;748923;184;919127;-63
2022/08/28 00:40:27;;;;;;;16.60;11.47;;;;;;;;;;754097;184;918939;-56
2022/08/28 00:42:54;;;;;;;16.77;12.50;;;;;;;;;;757062;184;822506;-61
2022/08/28 00:45:19;;;;;;;16.50;12.27;;;;;;;;;;759432;184;918498;-57
2022/08/28 00:47:45;;;;;;;15.57;10.90;;;;;;;;;;748944;185;917631;-58
2022/08/28 00:50:11;;;;;;;13.88;10.65;;;;;;;;;;747653;185;890584;-62
2022/08/28 00:52:37;;;;;;;15.87;11.10;;;;;;;;;;759857;184;874446;-58
2022/08/28 00:55:05;;;;;;;17.23;11.73;;;;;;;;;;752058;182;920239;-57
2022/08/28 00:57:31;;;;;;;19.80;12.10;;;;;;;;;;754401;183;914845;-63
2022/08/28 00:59:57;;;;;;;15.67;11.13;;;;;;;;;;756333;185;913449;-58
2022/08/28 01:02:24;;;;;;;14.32;11.40;;;;;;;;;;756195;182;918938;-57
2022/08/28 01:04:49;;;;;;;15.63;11.30;;;;;;;;;;749157;184;919396;-58
2022/08/28 01:07:15;;;;;;;12.63;9.93;;;;;;;;;;754637;184;918912;-62
2022/08/28 01:09:41;;;;;;;18.83;11.70;;;;;;;;;;765898;182;822562;-63
2022/08/28 01:12:07;;;;;;;15.50;12.00;;;;;;;;;;754356;182;919265;-62
2022/08/28 01:14:33;;;;;;;23.27;11.93;;;;;;;;;;750235;185;919012;-63
2022/08/28 01:16:58;;;;;;;15.10;11.00;;;;;;;;;;757229;184;820429;-62
2022/08/28 01:19:25;;;;;;;15.50;12.60;;;;;;;;;;754253;184;904918;-58
2022/08/28 01:21:50;;;;;;;25.50;12.10;;;;;;;;;;753406;184;916743;-61
2022/08/28 01:24:16;;;;;;;23.33;12.17;;;;;;;;;;752827;184;918716;-57
2022/08/28 01:26:42;;;;;;;21.87;11.17;;;;;;;;;;751518;184;919059;-62
2022/08/28 01:29:08;;;;;;;18.30;12.47;;;;;;;;;;750985;184;919619;-63
2022/08/28 01:31:34;;;;;;;18.70;10.60;;;;;;;;;;759909;184;819526;-62
2022/08/28 01:33:59;;;;;;;14.73;10.83;;;;;;;;;;749849;184;918812;-62
2022/08/28 01:36:25;;;;;;;21.63;12.03;;;;;;;;;;752527;184;919212;-58
2022/08/28 01:38:52;;;;;;;17.93;11.33;;;;;;;;;;752911;184;920373;-62
2022/08/28 01:41:18;;;;;;;20.17;12.17;;;;;;;;;;757110;184;918428;-58
2022/08/28 01:43:43;;;;;;;17.07;12.67;;;;;;;;;;755619;183;918391;-58
2022/08/28 01:46:10;;;;;;;19.83;11.67;;;;;;;;;;753727;184;818384;-63
2022/08/28 01:48:35;;;;;;;18.00;12.10;;;;;;;;;;755342;181;820674;-63
2022/08/28 01:51:01;;;;;;;27.93;11.53;;;;;;;;;;756742;181;817251;-64
2022/08/28 01:53:27;;;;;;;20.53;13.50;;;;;;;;;;749800;185;916526;-58
2022/08/28 01:55:53;;;;;;;17.27;11.17;;;;;;;;;;760951;184;816410;-62
2022/08/28 01:58:19;;;;;;;19.87;13.07;;;;;;;;;;754597;184;816595;-63
2022/08/28 02:00:45;;;;;;;15.80;12.00;;;;;;;;;;752155;185;819504;-63
2022/08/28 02:03:11;;;;;;;21.45;13.20;;;;;;;;;;750555;185;918258;-62
2022/08/28 02:05:36;;;;;;;21.73;13.27;;;;;;;;;;757706;183;896488;-58
2022/08/28 02:08:02;;;;;;;17.40;12.27;;;;;;;;;;753689;184;817095;-62
2022/08/28 02:10:28;;;;;;;24.23;10.67;;;;;;;;;;751875;182;916435;-62
2022/08/28 02:12:54;;;;;;;17.43;12.17;;;;;;;;;;754730;180;924303;-58
2022/08/28 02:15:20;;;;;;;15.47;11.77;;;;;;;;;;750732;182;916533;-62
2022/08/28 02:17:46;;;;;;;16.97;12.83;;;;;;;;;;756765;184;916003;-59
2022/08/28 02:20:11;;;;;;;19.33;12.90;;;;;;;;;;757065;184;917644;-58
2022/08/28 02:22:37;;;;;;;15.50;11.60;;;;;;;;;;747768;180;916463;-58
2022/08/28 02:25:04;;;;;;;27.23;14.90;;;;;;;;;;750353;184;818538;-60
2022/08/28 02:27:29;;;;;;;16.50;13.80;;;;;;;;;;750340;184;918932;-60
2022/08/28 02:29:56;;;;;;;16.10;12.03;;;;;;;;;;761777;181;821110;-63
2022/08/28 02:32:22;;;;;;;20.20;14.13;;;;;;;;;;755185;183;920179;-62
2022/08/28 02:34:47;;;;;;;17.70;13.00;;;;;;;;;;748818;184;919736;-62
2022/08/28 02:37:13;;;;;;;21.03;13.00;;;;;;;;;;761714;184;817812;-64
2022/08/28 02:39:39;;;;;;;18.10;13.07;;;;;;;;;;752772;184;819525;-62
2022/08/28 02:42:05;;;;;;;20.53;13.83;;;;;;;;;;756194;184;919099;-62
2022/08/28 02:44:30;;;;;;;14.43;11.67;;;;;;;;;;762380;184;816402;-58
2022/08/28 02:46:56;;;;;;;20.03;13.67;;;;;;;;;;754713;184;917701;-63
2022/08/28 02:49:22;;;;;;;15.27;11.88;;;;;;;;;;752322;184;918718;-62
2022/08/28 02:51:48;;;;;;;19.60;13.70;;;;;;;;;;756861;184;918981;-62
2022/08/28 02:54:14;;;;;;;19.63;12.70;;;;;;;;;;762403;182;916518;-62
2022/08/28 02:56:40;;;;;;;17.33;13.40;;;;;;;;;;748131;185;911877;-57
2022/08/28 02:59:06;;;;;;;21.17;13.93;;;;;;;;;;748478;185;918696;-58
2022/08/28 03:01:32;;;;;;;21.10;13.87;;;;;;;;;;760307;184;915264;-58
2022/08/28 03:03:58;;;;;;;18.43;13.43;;;;;;;;;;748534;183;919442;-58
2022/08/28 03:06:24;;;;;;;29.17;17.48;;;;;;;;;;752407;184;920422;-62
2022/08/28 03:08:49;;;;;;;29.27;15.87;;;;;;;;;;759336;184;918342;-61
2022/08/28 03:11:15;;;;;;;28.53;15.83;;;;;;;;;;752939;184;918391;-63
2022/08/28 03:13:41;;;;;;;30.87;20.07;;;;;;;;;;752449;184;921889;-62
2022/08/28 03:16:07;;;;;;;34.10;20.10;;;;;;;;;;755377;185;818651;-64
2022/08/28 03:18:33;;;;;;;39.87;25.10;;;;;;;;;;748417;185;918908;-58
2022/08/28 03:20:59;;;;;;;62.00;31.97;;;;;;;;;;749746;182;918222;-63
2022/08/28 03:23:25;;;;;;;53.03;30.10;;;;;;;;;;754911;184;919146;-62
2022/08/28 03:25:52;;;;;;;48.00;30.20;;;;;;;;;;756494;185;813833;-62
2022/08/28 03:28:18;;;;;;;56.45;28.12;;;;;;;;;;750023;184;917430;-63
2022/08/28 03:30:44;;;;;;;64.07;31.97;;;;;;;;;;747101;184;920169;-63
2022/08/28 03:33:10;;;;;;;58.80;32.30;;;;;;;;;;756951;184;919210;-59
2022/08/28 03:35:36;;;;;;;63.03;32.47;;;;;;;;;;753517;184;919151;-63
2022/08/28 03:38:01;;;;;;;61.03;34.13;;;;;;;;;;754074;184;914576;-63
2022/08/28 03:40:27;;;;;;;60.47;32.57;;;;;;;;;;756548;182;860991;-59
2022/08/28 03:42:53;;;;;;;70.60;34.10;;;;;;;;;;751866;184;914038;-59
2022/08/28 03:45:19;;;;;;;73.33;36.13;;;;;;;;;;754553;184;919579;-62
2022/08/28 03:47:45;;;;;;;60.83;34.80;;;;;;;;;;754583;184;919017;-60
2022/08/28 03:50:11;;;;;;;62.00;34.27;;;;;;;;;;756738;184;848966;-63
2022/08/28 03:52:38;;;;;;;59.53;33.93;;;;;;;;;;755514;184;919975;-65
2022/08/28 03:55:04;;;;;;;52.03;32.70;;;;;;;;;;753275;184;926093;-65
2022/08/28 03:57:29;;;;;;;64.80;36.13;;;;;;;;;;761886;184;919007;-60
2022/08/28 03:59:55;;;;;;;67.53;33.50;;;;;;;;;;755005;184;919488;-63
2022/08/28 04:02:21;;;;;;;60.23;33.47;;;;;;;;;;752500;184;918802;-63
2022/08/28 04:04:47;;;;;;;63.77;31.87;;;;;;;;;;754637;185;919065;-64
2022/08/28 04:07:13;;;;;;;55.38;32.53;;;;;;;;;;755213;184;919973;-58
2022/08/28 04:09:39;;;;;;;53.83;33.27;;;;;;;;;;755589;184;920863;-60
2022/08/28 04:12:05;;;;;;;47.63;31.83;;;;;;;;;;748987;184;917119;-65
2022/08/28 04:14:30;;;;;;;48.47;30.57;;;;;;;;;;760714;184;919691;-60
2022/08/28 04:16:56;;;;;;;63.10;34.03;;;;;;;;;;753239;185;916881;-65
2022/08/28 04:19:22;;;;;;;55.97;32.40;;;;;;;;;;746695;184;918181;-65
2022/08/28 04:21:48;;;;;;;52.53;31.97;;;;;;;;;;757466;185;791125;-66
2022/08/28 04:24:14;;;;;;;52.23;30.83;;;;;;;;;;754882;181;934584;-61
2022/08/28 04:26:40;;;;;;;51.33;28.92;;;;;;;;;;751269;184;918910;-61
2022/08/28 04:29:05;;;;;;;43.70;28.67;;;;;;;;;;757271;184;917096;-65
2022/08/28 04:31:32;;;;;;;47.87;29.20;;;;;;;;;;740106;187;919487;-61
2022/08/28 04:33:57;;;;;;;43.40;27.70;;;;;;;;;;747426;184;919601;-66
2022/08/28 04:36:23;;;;;;;50.93;29.17;;;;;;;;;;758406;184;918294;-65
2022/08/28 04:38:49;;;;;;;47.00;29.30;;;;;;;;;;754105;184;918319;-66
2022/08/28 04:41:15;;;;;;;49.27;27.70;;;;;;;;;;745700;185;920034;-61
2022/08/28 04:43:41;;;;;;;49.87;29.27;;;;;;;;;;750906;185;921805;-61
2022/08/28 04:46:07;;;;;;;42.07;25.83;;;;;;;;;;754728;185;920617;-61
2022/08/28 04:48:32;;;;;;;47.60;28.77;;;;;;;;;;740002;186;818145;-67
2022/08/28 04:50:58;;;;;;;41.83;25.20;;;;;;;;;;749963;185;1021223;-61
2022/08/28 04:53:24;;;;;;;40.90;26.60;;;;;;;;;;761887;183;919301;-66
2022/08/28 04:55:50;;;;;;;44.42;25.95;;;;;;;;;;752592;184;918595;-60
2022/08/28 04:58:16;;;;;;;35.90;25.30;;;;;;;;;;749660;184;912470;-61
2022/08/28 05:00:42;;;;;;;37.67;24.80;;;;;;;;;;755986;184;816882;-66
2022/08/28 05:03:10;;;;;;;36.50;23.17;;;;;;;;;;754975;184;914823;-65
2022/08/28 05:05:34;;;;;;;33.30;21.80;;;;;;;;;;755431;184;918468;-60
2022/08/28 05:07:59;;;;;;;40.27;24.60;;;;;;;;;;753419;184;918753;-60
2022/08/28 05:10:25;;;;;;;41.80;23.13;;;;;;;;;;761856;184;919834;-60
2022/08/28 05:12:51;;;;;;;29.90;21.70;;;;;;;;;;752257;184;919026;-65
2022/08/28 05:15:17;;;;;;;41.77;24.43;;;;;;;;;;752414;184;918955;-61
2022/08/28 05:17:43;;;;;;;35.30;25.30;;;;;;;;;;757655;185;918979;-61
2022/08/28 05:20:09;;;;;;;37.20;24.70;;;;;;;;;;759229;184;920158;-59
2022/08/28 05:22:35;;;;;;;37.72;23.48;;;;;;;;;;749710;185;921923;-60
2022/08/28 05:25:01;;;;;;;35.20;24.80;;;;;;;;;;758906;180;907400;-60
2022/08/28 05:27:27;;;;;;;34.40;24.50;;;;;;;;;;746463;185;920474;-59
2022/08/28 05:29:52;;;;;;;37.77;23.53;;;;;;;;;;755043;184;915441;-60
2022/08/28 05:32:18;;;;;;;42.93;24.87;;;;;;;;;;752949;184;919077;-64
2022/08/28 05:34:45;;;;;;;42.27;24.40;;;;;;;;;;755839;185;918807;-65
2022/08/28 05:37:10;;;;;;;39.70;25.90;;;;;;;;;;756511;184;918095;-64
2022/08/28 05:39:36;;;;;;;46.63;25.53;;;;;;;;;;748621;185;919057;-64
2022/08/28 05:42:02;;;;;;;33.97;24.10;;;;;;;;;;758991;184;816494;-64
2022/08/28 05:44:28;;;;;;;32.47;22.37;;;;;;;;;;753728;184;915937;-65
2022/08/28 05:46:54;;;;;;;27.87;22.07;;;;;;;;;;751167;185;916604;-63
2022/08/28 05:49:19;;;;;;;32.13;21.83;;;;;;;;;;752288;185;919040;-60
2022/08/28 05:51:45;;;;;;;35.47;20.37;;;;;;;;;;752588;184;919740;-65
2022/08/28 05:54:11;;;;;;;28.37;22.10;;;;;;;;;;754039;184;921090;-65
2022/08/28 05:56:37;;;;;;;29.70;22.77;;;;;;;;;;752527;185;918457;-64
2022/08/28 05:59:04;;;;;;;29.30;21.50;;;;;;;;;;751268;184;917036;-59
2022/08/28 06:01:29;;;;;;;32.87;23.20;;;;;;;;;;752805;184;918563;-59
2022/08/28 06:03:55;;;;;;;45.53;25.83;;;;;;;;;;753771;184;920320;-59
2022/08/28 06:06:23;;;;;;;35.53;24.30;;;;;;;;;;764714;184;919140;-61
2022/08/28 06:08:47;;;;;;;44.93;24.53;;;;;;;;;;756113;184;818386;-64
2022/08/28 06:11:12;;;;;;;51.90;27.07;;;;;;;;;;754956;184;918925;-66
2022/08/28 06:13:38;;;;;;;37.20;22.83;;;;;;;;;;759900;184;819499;-65
2022/08/28 06:16:04;;;;;;;36.23;23.67;;;;;;;;;;755341;184;816422;-67
2022/08/28 06:18:30;;;;;;;34.20;23.33;;;;;;;;;;752553;184;920711;-61
2022/08/28 06:20:56;;;;;;;32.10;22.37;;;;;;;;;;760748;182;804637;-65
2022/08/28 06:23:22;;;;;;;35.43;25.23;;;;;;;;;;750543;184;917494;-67
2022/08/28 06:25:48;;;;;;;34.00;24.50;;;;;;;;;;756049;184;918482;-65
2022/08/28 06:28:14;;;;;;;34.60;23.30;;;;;;;;;;749165;185;916078;-61
2022/08/28 06:30:42;;;;;;;32.10;25.30;;;;;;;;;;755737;185;916566;-67
2022/08/28 06:33:06;;;;;;;39.03;26.43;;;;;;;;;;754336;184;913147;-66
2022/08/28 06:35:32;;;;;;;40.67;25.30;;;;;;;;;;754945;184;920252;-60
2022/08/28 06:37:58;;;;;;;44.43;26.60;;;;;;;;;;754960;185;919048;-65
2022/08/28 06:40:24;;;;;;;41.25;29.75;;;;;;;;;;751273;185;918675;-61
2022/08/28 06:42:49;;;;;;;46.50;27.80;;;;;;;;;;749195;185;919150;-61
2022/08/28 06:45:15;;;;;;;42.80;26.50;;;;;;;;;;754833;181;918817;-62
2022/08/28 06:47:41;;;;;;;37.53;26.00;;;;;;;;;;753996;184;918683;-61
2022/08/28 06:50:07;;;;;;;37.87;28.07;;;;;;;;;;749211;185;918870;-61
2022/08/28 06:52:33;;;;;;;34.30;26.67;;;;;;;;;;749682;185;915929;-65
2022/08/28 06:54:59;;;;;;;33.47;22.43;;;;;;;;;;760024;184;917589;-61
2022/08/28 06:57:25;;;;;;;32.67;23.67;;;;;;;;;;754165;184;921431;-66
2022/08/28 06:59:55;;;;;;;33.00;20.10;;;;;;;;;;755479;184;920845;-61
2022/08/28 07:02:20;;;;;;;28.13;18.57;;;;;;;;;;756422;185;922293;-61
2022/08/28 07:04:49;;;;;;;25.07;17.53;;;;;;;;;;752253;182;911474;-67
2022/08/28 07:07:15;;;;;;;23.73;17.20;;;;;;;;;;754616;184;799525;-64
2022/08/28 07:09:41;;;;;;;25.47;17.60;;;;;;;;;;747275;184;919045;-65
2022/08/28 07:12:07;;;;;;;26.07;15.67;;;;;;;;;;754591;185;715466;-61
2022/08/28 07:14:32;;;;;;;22.90;15.77;;;;;;;;;;751341;184;918861;-65
2022/08/28 07:16:58;;;;;;;16.50;13.90;;;;;;;;;;750164;184;916661;-61
2022/08/28 07:19:24;;;;;;;16.80;13.13;;;;;;;;;;757478;184;825616;-65
2022/08/28 07:21:50;;;;;;;18.60;14.60;;;;;;;;;;756607;183;816709;-65
2022/08/28 07:24:16;;;;;;;18.80;15.30;;;;;;;;;;753067;184;914999;-65
2022/08/28 07:26:42;;;;;;;21.10;15.50;;;;;;;;;;757055;184;863503;-60
2022/08/28 07:29:08;;;;;;;21.00;14.20;;;;;;;;;;757230;184;920455;-59
2022/08/28 07:31:33;;;;;;;22.35;17.00;;;;;;;;;;756317;184;918867;-59
2022/08/28 07:33:59;;;;;;;18.20;13.40;;;;;;;;;;749676;182;916186;-60
2022/08/28 07:36:26;;;;;;;17.37;14.30;;;;;;;;;;756032;185;918904;-60
2022/08/28 07:38:51;;;;;;;20.13;14.20;;;;;;;;;;755880;184;818150;-64
2022/08/28 07:41:17;;;;;;;20.83;14.23;;;;;;;;;;747250;184;918772;-61
2022/08/28 07:46:14;;;;;;;20.30;15.23;;;;;;;;;;752330;184;918798;-64
2022/08/28 07:48:40;;;;;;;18.20;15.17;;;;;;;;;;752679;184;918937;-60
2022/08/28 07:51:06;;;;;;;19.50;15.00;;;;;;;;;;754825;181;915333;-64
2022/08/28 07:53:32;;;;;;;19.43;16.23;;;;;;;;;;758071;182;916253;-60
2022/08/28 07:55:58;;;;;;;18.23;16.03;;;;;;;;;;754716;184;919587;-65
2022/08/28 07:58:24;;;;;;;18.60;13.65;;;;;;;;;;749634;184;920670;-59
2022/08/28 08:00:50;;;;;;;14.77;12.73;;;;;;;;;;760497;184;812982;-60
2022/08/28 08:03:16;;;;;;;18.93;14.10;;;;;;;;;;755589;184;816274;-60
2022/08/28 08:05:42;;;;;;;22.83;15.73;;;;;;;;;;750638;182;919895;-60
2022/08/28 08:08:08;;;;;;;19.37;16.70;;;;;;;;;;759275;184;816966;-60
2022/08/28 08:10:34;;;;;;;23.17;18.50;;;;;;;;;;754605;184;917061;-66
2022/08/28 08:12:59;;;;;;;21.20;17.00;;;;;;;;;;753770;180;916182;-65
2022/08/28 08:15:25;;;;;;;19.90;16.50;;;;;;;;;;758761;184;918793;-60
2022/08/28 08:17:51;;;;;;;19.13;16.40;;;;;;;;;;754330;184;915932;-59
2022/08/28 08:20:17;;;;;;;19.47;15.93;;;;;;;;;;753117;184;918727;-60
2022/08/28 08:22:43;;;;;;;19.37;17.27;;;;;;;;;;747889;185;918605;-60
2022/08/28 08:25:09;;;;;;;22.57;17.60;;;;;;;;;;753433;184;918847;-61
2022/08/28 08:27:35;;;;;;;26.43;17.57;;;;;;;;;;751614;184;930839;-65
2022/08/28 08:30:02;;;;;;;20.20;17.63;;;;;;;;;;755064;184;912958;-66
2022/08/28 08:32:26;;;;;;;23.83;21.20;;;;;;;;;;759318;184;919868;-66
2022/08/28 08:34:52;;;;;;;24.90;20.50;;;;;;;;;;757578;184;909963;-66
2022/08/28 08:37:18;;;;;;;27.43;20.10;;;;;;;;;;751826;184;918615;-66
2022/08/28 08:39:44;;;;;;;25.80;21.80;;;;;;;;;;757086;184;619577;-60
2022/08/28 08:42:19;;;;;;;24.80;20.40;;;;;;;;;;758751;180;633987;-66
2022/08/28 08:44:46;;;;;;;35.30;26.20;;;;;;;;;;758817;180;627480;-60
2022/08/28 08:47:13;;;;;;;26.80;23.27;;;;;;;;;;755259;184;893653;-66
2022/08/28 08:49:39;;;;;;;39.17;32.30;;;;;;;;;;756544;185;873879;-61
2022/08/28 08:52:06;;;;;;;33.93;26.93;;;;;;;;;;751960;185;919407;-66
2022/08/28 08:54:32;;;;;;;32.27;28.30;;;;;;;;;;749806;184;917731;-66
2022/08/28 08:56:58;;;;;;;45.30;36.27;;;;;;;;;;754643;184;816759;-60
2022/08/28 08:59:26;;;;;;;38.60;34.17;;;;;;;;;;758415;184;917130;-67
2022/08/28 09:01:56;;;;;;;41.63;34.40;;;;;;;;;;751560;182;915972;-66
2022/08/28 09:04:28;;;;;;;44.03;35.43;;;;;;;;;;751538;185;916911;-60
2022/08/28 09:07:06;;;;;;;35.97;32.20;;;;;;;;;;752580;182;815766;-60
2022/08/28 09:09:31;;;;;;;29.60;26.13;;;;;;;;;;753040;182;918660;-61
2022/08/28 09:12:02;;;;;;;32.63;28.90;;;;;;;;;;758336;183;818169;-58
2022/08/28 09:14:32;;;;;;;33.90;27.47;;;;;;;;;;751349;185;910487;-59
2022/08/28 09:16:58;;;;;;;29.23;25.80;;;;;;;;;;752913;185;717047;-67
2022/08/28 09:19:23;;;;;;;28.97;24.70;;;;;;;;;;756287;184;917559;-68
2022/08/28 09:21:49;;;;;;;28.07;25.07;;;;;;;;;;753415;184;921421;-59
2022/08/28 09:24:31;;;;;;;32.53;29.13;;;;;;;;;;754067;184;919556;-66
2022/08/28 09:26:57;;;;;;;28.47;24.40;;;;;;;;;;755266;184;920851;-59
2022/08/28 09:29:23;;;;;;;31.17;26.10;;;;;;;;;;757463;184;626048;-66
2022/08/28 09:31:49;;;;;;;25.73;23.13;;;;;;;;;;752772;185;918684;-60
2022/08/28 09:34:15;;;;;;;29.30;25.40;;;;;;;;;;757469;184;923880;-66
2022/08/28 09:36:41;;;;;;;27.07;22.23;;;;;;;;;;755654;182;817541;-60
2022/08/28 09:39:07;;;;;;;28.30;25.20;;;;;;;;;;762885;184;919417;-60
2022/08/28 09:44:06;;;;;;;31.40;23.27;;;;;;;;;;753908;184;920749;-67
2022/08/28 09:46:33;;;;;;;28.53;25.20;;;;;;;;;;750693;180;917755;-60
2022/08/28 09:49:04;;;;;;;31.10;24.17;;;;;;;;;;755915;184;919120;-59
2022/08/28 09:51:30;;;;;;;29.07;24.10;;;;;;;;;;754335;184;875867;-65
2022/08/28 09:53:56;;;;;;;26.70;22.87;;;;;;;;;;752302;184;865084;-65
2022/08/28 09:56:28;;;;;;;27.67;24.80;;;;;;;;;;754902;183;822992;-60
2022/08/28 09:58:55;;;;;;;33.43;26.40;;;;;;;;;;751486;185;922628;-59
2022/08/28 10:01:26;;;;;;;28.30;23.63;;;;;;;;;;750654;185;715200;-60
2022/08/28 10:03:52;;;;;;;26.40;21.43;;;;;;;;;;759023;184;817190;-61
2022/08/28 10:06:20;;;;;;;31.93;26.07;;;;;;;;;;748855;186;915550;-66
2022/08/28 10:08:46;;;;;;;30.00;23.70;;;;;;;;;;751202;187;776938;-66
2022/08/28 10:11:17;;;;;;;32.95;25.02;;;;;;;;;;754260;183;919375;-59
2022/08/28 10:13:43;;;;;;;34.40;25.33;;;;;;;;;;750685;185;919382;-59
2022/08/28 10:16:15;;;;;;;35.63;24.80;;;;;;;;;;757520;184;917955;-59
2022/08/28 10:18:44;;;;;;;41.67;25.63;;;;;;;;;;757970;184;921557;-66
2022/08/28 10:21:11;;;;;;;24.83;21.60;;;;;;;;;;746665;185;919249;-65
2022/08/28 10:23:40;;;;;;;33.67;24.17;;;;;;;;;;755451;184;918543;-60
2022/08/28 10:26:18;;;;;;;27.13;22.53;;;;;;;;;;759291;184;918736;-58
2022/08/28 10:28:44;;;;;;;33.10;21.70;;;;;;;;;;749188;187;922310;-59
2022/08/28 10:31:20;;;;;;;31.20;23.50;;;;;;;;;;751543;182;817078;-65
2022/08/28 10:34:02;;;;;;;31.47;23.43;;;;;;;;;;748447;185;919203;-61
2022/08/28 10:36:28;;;;;;;29.50;22.67;;;;;;;;;;750594;183;920822;-58
2022/08/28 10:38:54;;;;;;;29.70;21.70;;;;;;;;;;754191;184;918839;-65
2022/08/28 10:41:21;;;;;;;26.40;19.37;;;;;;;;;;753320;185;911993;-60
2022/08/28 10:43:47;;;;;;;26.43;20.93;;;;;;;;;;754314;184;915868;-59
2022/08/28 10:46:13;;;;;;;28.60;19.80;;;;;;;;;;750950;184;899676;-65
2022/08/28 10:48:40;;;;;;;25.20;20.30;;;;;;;;;;757885;184;886605;-59
2022/08/28 10:51:06;;;;;;;30.23;20.83;;;;;;;;;;753751;184;920491;-65
2022/08/28 10:53:32;;;;;;;35.07;21.03;;;;;;;;;;749920;182;918311;-59
2022/08/28 10:55:58;;;;;;;26.93;20.77;;;;;;;;;;748559;184;918903;-59
2022/08/28 10:58:24;;;;;;;27.00;22.37;;;;;;;;;;757985;184;914921;-59
2022/08/28 11:00:49;;;;;;;29.13;23.07;;;;;;;;;;754319;182;919216;-65
2022/08/28 11:03:15;;;;;;;28.30;19.13;;;;;;;;;;755122;184;923871;-58
2022/08/28 11:05:46;;;;;;;29.43;20.10;;;;;;;;;;759827;184;919379;-64
2022/08/28 11:08:12;;;;;;;26.90;21.97;;;;;;;;;;742376;185;920669;-64
2022/08/28 11:10:39;;;;;;;34.10;23.47;;;;;;;;;;751524;185;817934;-58
2022/08/28 11:13:05;;;;;;;23.80;20.33;;;;;;;;;;752454;182;818858;-64
2022/08/28 11:15:39;;;;;;;31.50;23.40;;;;;;;;;;761425;184;714144;-65
2022/08/28 11:18:22;;;;;;;22.50;19.83;;;;;;;;;;757722;182;713330;-64
2022/08/28 11:20:54;;;;;;;26.80;20.27;;;;;;;;;;752665;185;916414;-64
2022/08/28 11:23:19;;;;;;;26.13;19.60;;;;;;;;;;748593;185;918815;-58
2022/08/28 11:25:46;;;;;;;27.37;22.23;;;;;;;;;;754957;184;908618;-59
2022/08/28 11:28:14;;;;;;;28.27;21.60;;;;;;;;;;753024;185;915020;-64
2022/08/28 11:30:39;;;;;;;28.83;21.00;;;;;;;;;;756906;182;623097;-58
2022/08/28 11:33:06;;;;;;;32.57;22.70;;;;;;;;;;755077;184;639722;-59
2022/08/28 11:35:33;;;;;;;28.60;20.70;;;;;;;;;;758130;185;630192;-59
2022/08/28 11:37:59;;;;;;;32.20;24.03;;;;;;;;;;753970;184;817327;-64
2022/08/28 11:40:42;;;;;;;29.57;22.67;;;;;;;;;;752436;184;919044;-64
2022/08/28 11:43:26;;;;;;;27.53;23.03;;;;;;;;;;755584;184;917828;-66
2022/08/28 11:46:07;;;;;;;32.07;23.50;;;;;;;;;;747738;185;917098;-64
2022/08/28 11:48:48;;;;;;;29.17;21.80;;;;;;;;;;755753;184;919613;-58
2022/08/28 11:51:31;;;;;;;29.17;21.80;;;;;;;;;;747953;185;868366;-64
2022/08/28 11:54:06;;;;;;;24.90;19.63;;;;;;;;;;753001;184;918104;-64
2022/08/28 11:56:50;;;;;;;17.20;15.03;;;;;;;;;;754831;184;907355;-65
2022/08/28 11:59:16;;;;;;;16.43;14.70;;;;;;;;;;754536;181;873585;-58
2022/08/28 12:01:42;;;;;;;19.27;14.53;;;;;;;;;;759342;183;919031;-58
2022/08/28 12:04:08;;;;;;;23.00;18.43;;;;;;;;;;754675;184;918849;-62
2022/08/28 12:06:40;;;;;;;30.10;18.33;;;;;;;;;;754286;184;920872;-66
2022/08/28 12:09:05;;;;;;;42.33;23.10;;;;;;;;;;754022;184;892757;-67
2022/08/28 12:11:37;;;;;;;30.90;20.47;;;;;;;;;;754486;184;915288;-64
2022/08/28 12:14:03;;;;;;;37.30;22.83;;;;;;;;;;754880;184;919664;-61
2022/08/28 12:16:29;;;;;;;39.10;21.20;;;;;;;;;;749974;184;917918;-61
2022/08/28 12:18:54;;;;;;;26.67;21.40;;;;;;;;;;755087;184;917987;-61
2022/08/28 12:21:20;;;;;;;28.70;22.37;;;;;;;;;;752912;185;916121;-62
2022/08/28 12:24:00;;;;;;;31.10;21.53;;;;;;;;;;753855;184;915266;-63
2022/08/28 12:26:26;;;;;;;30.33;22.40;;;;;;;;;;749277;185;918410;-60
2022/08/28 12:28:55;;;;;;;26.93;22.53;;;;;;;;;;754546;184;920354;-63
2022/08/28 12:32:10;;;;;;;26.27;21.80;;;;;;;;;;758402;184;845988;-63
2022/08/28 12:33:53;;;;;;;28.60;20.60;;;;;;;;;;753719;184;819235;-63
2022/08/28 12:36:25;;;;;;;29.57;22.40;;;;;;;;;;753868;184;901104;-62
2022/08/28 12:38:45;;;;;;;28.17;22.10;;;;;;;;;;753890;181;787651;-63
2022/08/28 12:41:13;;;;;;;29.97;19.40;;;;;;;;;;752554;185;917935;-64
2022/08/28 12:43:39;;;;;;;19.93;17.10;;;;;;;;;;753559;184;919159;-59
2022/08/28 12:46:05;;;;;;;21.67;17.00;;;;;;;;;;754192;184;844917;-63
2022/08/28 12:48:31;;;;;;;19.63;14.47;;;;;;;;;;756740;184;919284;-59
2022/08/28 12:50:57;;;;;;;19.87;13.60;;;;;;;;;;754338;185;871577;-60
2022/08/28 12:53:23;;;;;;;17.10;13.90;;;;;;;;;;749648;185;816342;-59
2022/08/28 12:55:50;;;;;;;24.15;17.33;;;;;;;;;;756387;184;917851;-65
2022/08/28 12:58:21;;;;;;;19.90;16.00;;;;;;;;;;757980;181;814438;-64
2022/08/28 13:00:47;;;;;;;21.63;17.43;;;;;;;;;;752033;185;917672;-65
2022/08/28 13:03:13;;;;;;;23.67;16.20;;;;;;;;;;754815;184;918295;-60
2022/08/28 13:05:39;;;;;;;21.85;18.27;;;;;;;;;;752783;185;919116;-60
2022/08/28 13:08:05;;;;;;;22.90;16.80;;;;;;;;;;754868;181;919723;-63
2022/08/28 13:10:33;;;;;;;20.23;17.00;;;;;;;;;;750594;184;919224;-63
2022/08/28 13:13:02;;;;;;;20.57;17.20;;;;;;;;;;754505;183;919246;-58
2022/08/28 13:15:34;;;;;;;23.77;18.60;;;;;;;;;;758611;184;917480;-59
2022/08/28 13:17:59;;;;;;;22.30;17.17;;;;;;;;;;753657;183;919349;-58
2022/08/28 13:20:26;;;;;;;27.57;18.57;;;;;;;;;;753099;184;920700;-63
2022/08/28 13:22:52;;;;;;;23.67;18.97;;;;;;;;;;754064;183;823863;-60
2022/08/28 13:25:21;;;;;;;25.03;18.10;;;;;;;;;;761368;182;917865;-58
2022/08/28 13:27:46;;;;;;;25.33;20.50;;;;;;;;;;749912;184;921204;-62
2022/08/28 13:30:27;;;;;;;23.70;19.60;;;;;;;;;;752906;184;943211;-62
2022/08/28 13:32:55;;;;;;;29.25;20.02;;;;;;;;;;747456;185;917342;-62
2022/08/28 13:35:35;;;;;;;28.33;20.70;;;;;;;;;;762197;184;808146;-63
2022/08/28 13:38:02;;;;;;;28.20;20.70;;;;;;;;;;755033;185;915891;-64
2022/08/28 13:40:27;;;;;;;30.30;22.50;;;;;;;;;;748993;184;913607;-62
2022/08/28 13:42:53;;;;;;;30.17;22.53;;;;;;;;;;752305;180;915868;-62
2022/08/28 13:45:19;;;;;;;30.20;23.17;;;;;;;;;;759296;184;919145;-60
2022/08/28 13:47:45;;;;;;;33.40;24.17;;;;;;;;;;753043;184;920062;-60
2022/08/28 13:50:11;;;;;;;33.83;22.73;;;;;;;;;;754803;184;914609;-59
2022/08/28 13:52:37;;;;;;;32.20;23.83;;;;;;;;;;753583;184;919241;-63
2022/08/28 13:55:03;;;;;;;28.40;21.13;;;;;;;;;;755677;184;919171;-58
2022/08/28 13:57:28;;;;;;;27.97;20.93;;;;;;;;;;754276;184;918607;-64
2022/08/28 13:59:54;;;;;;;26.70;22.37;;;;;;;;;;751040;185;916887;-64
2022/08/28 14:04:52;;;;;;;26.47;21.07;;;;;;;;;;752932;183;838936;-62
2022/08/28 14:07:18;;;;;;;27.53;21.20;;;;;;;;;;750654;184;1019962;-64
2022/08/28 14:09:43;;;;;;;26.55;20.58;;;;;;;;;;754651;184;917825;-61